sensor_id;sensor_type;location;lat;lon;timestamp;pressure;altitude;pressure_sealevel;temperature;humidity
22283;BME280;11310;51.528;21.204;2023-02-17T00:02:27;100358.22;;;2.57;100.00
22283;BME280;11310;51.528;21.204;2023-02-17T00:05:10;100362.56;;;2.56;100.00
22283;BME280;11310;51.528;21.204;2023-02-17T00:07:50;100359.94;;;2.59;100.00
22283;BME280;11310;51.528;21.204;2023-02-17T00:10:32;100357.31;;;2.61;100.00
22283;BME280;11310;51.528;21.204;2023-02-17T00:13:15;100355.63;;;2.60;100.00
22283;BME280;11310;51.528;21.204;2023-02-17T00:15:55;100353.03;;;2.60;100.00
22283;BME280;11310;51.528;21.204;2023-02-17T00:18:39;100344.38;;;2.61;100.00
22283;BME280;11310;51.528;21.204;2023-02-17T00:21:25;100344.38;;;2.62;100.00
22283;BME280;11310;51.528;21.204;2023-02-17T00:24:02;100343.50;;;2.60;100.00
22283;BME280;11310;51.528;21.204;2023-02-17T00:26:40;100350.44;;;2.60;100.00
22283;BME280;11310;51.528;21.204;2023-02-17T00:29:22;100349.56;;;2.59;100.00
22283;BME280;11310;51.528;21.204;2023-02-17T00:32:11;100344.41;;;2.58;100.00
22283;BME280;11310;51.528;21.204;2023-02-17T00:34:55;100340.97;;;2.57;100.00
22283;BME280;11310;51.528;21.204;2023-02-17T00:37:40;100335.78;;;2.59;100.00
22283;BME280;11310;51.528;21.204;2023-02-17T00:40:25;100337.50;;;2.57;100.00
22283;BME280;11310;51.528;21.204;2023-02-17T00:43:16;100328.03;;;2.53;100.00
22283;BME280;11310;51.528;21.204;2023-02-17T00:46:09;100327.16;;;2.54;100.00
22283;BME280;11310;51.528;21.204;2023-02-17T00:49:05;100328.03;;;2.53;100.00
22283;BME280;11310;51.528;21.204;2023-02-17T00:52:03;100322.88;;;2.51;100.00
22283;BME280;11310;51.528;21.204;2023-02-17T00:54:37;100328.94;;;2.52;100.00
22283;BME280;11310;51.528;21.204;2023-02-17T00:57:20;100328.03;;;2.53;100.00
22283;BME280;11310;51.528;21.204;2023-02-17T01:00:06;100316.84;;;2.52;100.00
22283;BME280;11310;51.528;21.204;2023-02-17T01:02:43;100322.88;;;2.51;100.00
22283;BME280;11310;51.528;21.204;2023-02-17T01:05:25;100305.66;;;2.49;100.00
22283;BME280;11310;51.528;21.204;2023-02-17T01:08:00;100309.97;;;2.50;100.00
22283;BME280;11310;51.528;21.204;2023-02-17T01:10:36;100311.69;;;2.48;100.00
22283;BME280;11310;51.528;21.204;2023-02-17T01:13:14;100298.75;;;2.48;100.00
22283;BME280;11310;51.528;21.204;2023-02-17T01:15:59;100297.94;;;2.46;100.00
22283;BME280;11310;51.528;21.204;2023-02-17T01:18:44;100299.66;;;2.45;100.00
22283;BME280;11310;51.528;21.204;2023-02-17T01:21:25;100294.47;;;2.47;100.00
22283;BME280;11310;51.528;21.204;2023-02-17T01:24:12;100291.88;;;2.47;100.00
22283;BME280;11310;51.528;21.204;2023-02-17T01:26:48;100291.00;;;2.48;100.00
22283;BME280;11310;51.528;21.204;2023-02-17T01:29:35;100293.56;;;2.52;100.00
22283;BME280;11310;51.528;21.204;2023-02-17T01:32:22;100297.84;;;2.52;100.00
22283;BME280;11310;51.528;21.204;2023-02-17T01:34:54;100290.91;;;2.54;100.00
22283;BME280;11310;51.528;21.204;2023-02-17T01:37:27;100292.66;;;2.55;100.00
22283;BME280;11310;51.528;21.204;2023-02-17T01:40:07;100294.38;;;2.56;100.00
22283;BME280;11310;51.528;21.204;2023-02-17T01:42:44;100290.06;;;2.56;100.00
22283;BME280;11310;51.528;21.204;2023-02-17T01:45:44;100294.38;;;2.56;100.00
22283;BME280;11310;51.528;21.204;2023-02-17T01:48:30;100292.66;;;2.56;100.00
22283;BME280;11310;51.528;21.204;2023-02-17T01:51:13;100283.13;;;2.57;100.00
22283;BME280;11310;51.528;21.204;2023-02-17T01:53:59;100286.63;;;2.54;100.00
22283;BME280;11310;51.528;21.204;2023-02-17T01:56:43;100287.47;;;2.55;100.00
22283;BME280;11310;51.528;21.204;2023-02-17T01:59:28;100277.13;;;2.53;100.00
22283;BME280;11310;51.528;21.204;2023-02-17T02:02:07;100277.16;;;2.52;100.00
22283;BME280;11310;51.528;21.204;2023-02-17T02:04:54;100278.03;;;2.48;100.00
22283;BME280;11310;51.528;21.204;2023-02-17T02:07:45;100271.19;;;2.42;100.00
22283;BME280;11310;51.528;21.204;2023-02-17T02:10:56;100260.09;;;2.33;100.00
22283;BME280;11310;51.528;21.204;2023-02-17T02:13:53;100265.28;;;2.30;100.00
22283;BME280;11310;51.528;21.204;2023-02-17T02:16:43;100263.56;;;2.27;100.00
22283;BME280;11310;51.528;21.204;2023-02-17T02:19:50;100256.69;;;2.23;100.00
22283;BME280;11310;51.528;21.204;2023-02-17T02:30:19;100253.28;;;2.23;100.00
22283;BME280;11310;51.528;21.204;2023-02-17T02:33:26;100257.56;;;2.24;100.00
22283;BME280;11310;51.528;21.204;2023-02-17T02:36:11;100246.41;;;2.20;100.00
22283;BME280;11310;51.528;21.204;2023-02-17T02:39:00;100242.16;;;2.12;100.00
22283;BME280;11310;51.528;21.204;2023-02-17T02:41:51;100244.78;;;2.07;100.00
22283;BME280;11310;51.528;21.204;2023-02-17T02:44:39;100256.03;;;2.02;100.00
22283;BME280;11310;51.528;21.204;2023-02-17T02:47:53;100255.22;;;1.94;100.00
22283;BME280;11310;51.528;21.204;2023-02-17T02:51:02;100260.44;;;1.92;100.00
22283;BME280;11310;51.528;21.204;2023-02-17T02:54:02;100263.00;;;1.94;100.00
22283;BME280;11310;51.528;21.204;2023-02-17T02:57:12;100250.06;;;1.94;100.00
22283;BME280;11310;51.528;21.204;2023-02-17T03:00:05;100245.75;;;1.97;100.00
22283;BME280;11310;51.528;21.204;2023-02-17T03:02:52;100241.41;;;1.98;100.00
22283;BME280;11310;51.528;21.204;2023-02-17T03:05:42;100240.53;;;2.02;100.00
22283;BME280;11310;51.528;21.204;2023-02-17T03:08:40;100238.81;;;1.99;100.00
22283;BME280;11310;51.528;21.204;2023-02-17T03:11:25;100235.41;;;1.97;100.00
22283;BME280;11310;51.528;21.204;2023-02-17T03:14:14;100245.75;;;1.97;100.00
22283;BME280;11310;51.528;21.204;2023-02-17T03:17:10;100232.81;;;1.96;100.00
22283;BME280;11310;51.528;21.204;2023-02-17T03:20:06;100230.22;;;1.96;100.00
22283;BME280;11310;51.528;21.204;2023-02-17T03:22:49;100228.53;;;1.92;100.00
22283;BME280;11310;51.528;21.204;2023-02-17T03:25:32;100229.41;;;1.91;100.00
22283;BME280;11310;51.528;21.204;2023-02-17T03:28:20;100228.59;;;1.86;100.00
22283;BME280;11310;51.528;21.204;2023-02-17T03:31:10;100227.75;;;1.82;100.00
22283;BME280;11310;51.528;21.204;2023-02-17T03:33:59;100231.19;;;1.86;100.00
22283;BME280;11310;51.528;21.204;2023-02-17T03:36:36;100231.13;;;1.87;100.00
22283;BME280;11310;51.528;21.204;2023-02-17T03:39:26;100237.19;;;1.86;100.00
22283;BME280;11310;51.528;21.204;2023-02-17T03:42:23;100238.06;;;1.85;100.00
22283;BME280;11310;51.528;21.204;2023-02-17T03:45:34;100235.47;;;1.88;100.00
22283;BME280;11310;51.528;21.204;2023-02-17T03:48:40;100232.81;;;1.93;100.00
22283;BME280;11310;51.528;21.204;2023-02-17T03:51:44;100236.28;;;1.92;100.00
22283;BME280;11310;51.528;21.204;2023-02-17T03:54:52;100235.41;;;1.97;100.00
22283;BME280;11310;51.528;21.204;2023-02-17T03:58:03;100234.50;;;2.00;100.00
22283;BME280;11310;51.528;21.204;2023-02-17T04:01:00;100239.69;;;2.00;100.00
22283;BME280;11310;51.528;21.204;2023-02-17T04:04:00;100236.22;;;1.99;100.00
22283;BME280;11310;51.528;21.204;2023-02-17T04:07:20;100235.34;;;2.00;100.00
22283;BME280;11310;51.528;21.204;2023-02-17T04:10:28;100243.09;;;2.02;100.00
22283;BME280;11310;51.528;21.204;2023-02-17T04:13:51;100229.28;;;2.06;100.00
22283;BME280;11310;51.528;21.204;2023-02-17T04:17:04;100234.44;;;2.06;100.00
22283;BME280;11310;51.528;21.204;2023-02-17T04:20:22;100228.44;;;2.04;100.00
22283;BME280;11310;51.528;21.204;2023-02-17T04:23:31;100231.88;;;2.04;100.00
22283;BME280;11310;51.528;21.204;2023-02-17T04:26:20;100224.97;;;2.06;100.00
22283;BME280;11310;51.528;21.204;2023-02-17T04:29:06;100232.69;;;2.08;100.00
22283;BME280;11310;51.528;21.204;2023-02-17T04:31:47;100222.31;;;2.11;100.00
22283;BME280;11310;51.528;21.204;2023-02-17T04:34:35;100217.16;;;2.11;100.00
22283;BME280;11310;51.528;21.204;2023-02-17T04:37:18;100227.50;;;2.11;100.00
22283;BME280;11310;51.528;21.204;2023-02-17T04:39:47;100212.88;;;2.08;100.00
22283;BME280;11310;51.528;21.204;2023-02-17T04:42:15;100226.63;;;2.10;100.00
22283;BME280;11310;51.528;21.204;2023-02-17T04:44:45;100224.03;;;2.12;100.00
22283;BME280;11310;51.528;21.204;2023-02-17T04:47:14;100234.38;;;2.15;100.00
22283;BME280;11310;51.528;21.204;2023-02-17T04:49:43;100225.72;;;2.17;100.00
22283;BME280;11310;51.528;21.204;2023-02-17T04:52:11;100220.56;;;2.16;100.00
22283;BME280;11310;51.528;21.204;2023-02-17T04:54:40;100215.38;;;2.19;100.00
22283;BME280;11310;51.528;21.204;2023-02-17T04:57:08;100213.63;;;2.19;100.00
22283;BME280;11310;51.528;21.204;2023-02-17T04:59:37;100209.31;;;2.18;100.00
22283;BME280;11310;51.528;21.204;2023-02-17T05:02:07;100213.66;;;2.18;100.00
22283;BME280;11310;51.528;21.204;2023-02-17T05:04:36;100209.31;;;2.18;100.00
22283;BME280;11310;51.528;21.204;2023-02-17T05:07:05;100208.47;;;2.18;100.00
22283;BME280;11310;51.528;21.204;2023-02-17T05:09:34;100196.38;;;2.20;100.00
22283;BME280;11310;51.528;21.204;2023-02-17T05:12:03;100199.84;;;2.19;100.00
22283;BME280;11310;51.528;21.204;2023-02-17T05:14:33;100195.53;;;2.18;100.00
22283;BME280;11310;51.528;21.204;2023-02-17T05:17:02;100199.84;;;2.19;100.00
22283;BME280;11310;51.528;21.204;2023-02-17T05:19:32;100208.44;;;2.19;100.00
22283;BME280;11310;51.528;21.204;2023-02-17T05:22:01;100204.13;;;2.21;100.00
22283;BME280;11310;51.528;21.204;2023-02-17T05:24:30;100193.75;;;2.24;100.00
22283;BME280;11310;51.528;21.204;2023-02-17T05:26:59;100200.63;;;2.27;100.00
22283;BME280;11310;51.528;21.204;2023-02-17T05:29:28;100189.41;;;2.28;100.00
22283;BME280;11310;51.528;21.204;2023-02-17T05:31:57;100196.28;;;2.30;100.00
22283;BME280;11310;51.528;21.204;2023-02-17T05:34:25;100197.97;;;2.30;100.00
22283;BME280;11310;51.528;21.204;2023-02-17T05:36:55;100194.53;;;2.31;100.00
22283;BME280;11310;51.528;21.204;2023-02-17T05:39:24;100191.91;;;2.32;100.00
22283;BME280;11310;51.528;21.204;2023-02-17T05:41:53;100194.50;;;2.34;100.00
22283;BME280;11310;51.528;21.204;2023-02-17T05:44:22;100185.84;;;2.35;100.00
22283;BME280;11310;51.528;21.204;2023-02-17T05:46:51;100187.59;;;2.36;100.00
22283;BME280;11310;51.528;21.204;2023-02-17T05:49:19;100179.84;;;2.34;100.00
22283;BME280;11310;51.528;21.204;2023-02-17T05:51:48;100187.59;;;2.36;100.00
22283;BME280;11310;51.528;21.204;2023-02-17T05:54:18;100175.50;;;2.35;100.00
22283;BME280;11310;51.528;21.204;2023-02-17T05:56:47;100172.06;;;2.36;100.00
22283;BME280;11310;51.528;21.204;2023-02-17T05:59:27;100163.44;;;2.35;100.00
22283;BME280;11310;51.528;21.204;2023-02-17T06:02:23;100160.78;;;2.40;100.00
22283;BME280;11310;51.528;21.204;2023-02-17T06:05:27;100159.88;;;2.42;100.00
22283;BME280;11310;51.528;21.204;2023-02-17T06:08:33;100150.38;;;2.44;100.00
22283;BME280;11310;51.528;21.204;2023-02-17T06:11:35;100155.56;;;2.44;100.00
22283;BME280;11310;51.528;21.204;2023-02-17T06:14:24;100154.66;;;2.50;100.00
22283;BME280;11310;51.528;21.204;2023-02-17T06:17:17;100163.22;;;2.55;100.00
22283;BME280;11310;51.528;21.204;2023-02-17T06:19:54;100164.91;;;2.57;100.00
22283;BME280;11310;51.528;21.204;2023-02-17T06:22:27;100156.25;;;2.60;100.00
22283;BME280;11310;51.528;21.204;2023-02-17T06:25:03;100162.22;;;2.65;100.00
22283;BME280;11310;51.528;21.204;2023-02-17T06:27:54;100156.06;;;2.72;100.00
22283;BME280;11310;51.528;21.204;2023-02-17T06:30:48;100149.97;;;2.79;100.00
22283;BME280;11310;51.528;21.204;2023-02-17T06:33:24;100155.06;;;2.83;100.00
22283;BME280;11310;51.528;21.204;2023-02-17T06:36:06;100159.34;;;2.86;100.00
22283;BME280;11310;51.528;21.204;2023-02-17T06:39:01;100151.56;;;2.86;100.00
22283;BME280;11310;51.528;21.204;2023-02-17T06:41:43;100147.25;;;2.88;100.00
22283;BME280;11310;51.528;21.204;2023-02-17T06:44:24;100158.41;;;2.91;100.00
22283;BME280;11310;51.528;21.204;2023-02-17T06:47:14;100154.88;;;2.98;100.00
22283;BME280;11310;51.528;21.204;2023-02-17T06:49:44;100157.41;;;3.03;100.00
22283;BME280;11310;51.528;21.204;2023-02-17T06:52:12;100166.84;;;3.07;100.00
22283;BME280;11310;51.528;21.204;2023-02-17T06:54:41;100167.59;;;3.15;100.00
22283;BME280;11310;51.528;21.204;2023-02-17T06:57:10;100161.47;;;3.20;100.00
22283;BME280;11310;51.528;21.204;2023-02-17T06:59:40;100147.63;;;3.23;100.00
22283;BME280;11310;51.528;21.204;2023-02-17T07:02:09;100150.16;;;3.26;100.00
22283;BME280;11310;51.528;21.204;2023-02-17T07:04:41;100146.66;;;3.28;100.00
22283;BME280;11310;51.528;21.204;2023-02-17T07:07:10;100144.88;;;3.32;100.00
22283;BME280;11310;51.528;21.204;2023-02-17T07:09:39;100145.69;;;3.37;100.00
22283;BME280;11310;51.528;21.204;2023-02-17T07:12:08;100132.56;;;3.46;100.00
22283;BME280;11310;51.528;21.204;2023-02-17T07:14:37;100128.16;;;3.52;100.00
22283;BME280;11310;51.528;21.204;2023-02-17T07:17:07;100127.16;;;3.58;100.00
22283;BME280;11310;51.528;21.204;2023-02-17T07:19:36;100121.03;;;3.63;100.00
22283;BME280;11310;51.528;21.204;2023-02-17T07:22:04;100133.88;;;3.71;100.00
22283;BME280;11310;51.528;21.204;2023-02-17T07:24:33;100135.50;;;3.78;100.00
22283;BME280;11310;51.528;21.204;2023-02-17T07:27:03;100137.03;;;3.88;100.00
22283;BME280;11310;51.528;21.204;2023-02-17T07:29:32;100144.66;;;3.97;100.00
22283;BME280;11310;51.528;21.204;2023-02-17T07:32:01;100147.94;;;4.06;100.00
22283;BME280;11310;51.528;21.204;2023-02-17T07:34:31;100136.44;;;4.19;100.00
22283;BME280;11310;51.528;21.204;2023-02-17T07:37:00;100124.94;;;4.32;100.00
22283;BME280;11310;51.528;21.204;2023-02-17T07:39:29;100114.38;;;4.43;100.00
22283;BME280;11310;51.528;21.204;2023-02-17T07:41:58;100118.47;;;4.53;100.00
22283;BME280;11310;51.528;21.204;2023-02-17T07:44:28;100123.50;;;4.62;100.00
22283;BME280;11310;51.528;21.204;2023-02-17T07:46:57;100121.50;;;4.73;100.00
22283;BME280;11310;51.528;21.204;2023-02-17T07:49:25;100133.34;;;4.86;100.00
22283;BME280;11310;51.528;21.204;2023-02-17T07:51:55;100131.41;;;4.97;100.00
22283;BME280;11310;51.528;21.204;2023-02-17T07:54:24;100136.31;;;5.09;100.00
22283;BME280;11310;51.528;21.204;2023-02-17T07:56:53;100132.69;;;5.16;100.00
22283;BME280;11310;51.528;21.204;2023-02-17T07:59:21;100123.94;;;5.20;100.00
22283;BME280;11310;51.528;21.204;2023-02-17T08:01:50;100126.44;;;5.23;100.00
22283;BME280;11310;51.528;21.204;2023-02-17T08:04:20;100122.94;;;5.25;100.00
22283;BME280;11310;51.528;21.204;2023-02-17T08:06:48;100123.75;;;5.27;100.00
22283;BME280;11310;51.528;21.204;2023-02-17T08:09:18;100126.22;;;5.33;100.00
22283;BME280;11310;51.528;21.204;2023-02-17T08:12:05;100125.13;;;5.42;100.00
22283;BME280;11310;51.528;21.204;2023-02-17T08:14:51;100107.53;;;5.53;100.00
22283;BME280;11310;51.528;21.204;2023-02-17T08:17:20;100108.94;;;5.66;100.00
22283;BME280;11310;51.528;21.204;2023-02-17T08:19:49;100106.09;;;5.76;100.00
22283;BME280;11310;51.528;21.204;2023-02-17T08:22:17;100097.13;;;5.88;100.00
22283;BME280;11310;51.528;21.204;2023-02-17T08:24:48;100100.16;;;6.03;100.00
22283;BME280;11310;51.528;21.204;2023-02-17T08:27:18;100098.91;;;6.18;100.00
22283;BME280;11310;51.528;21.204;2023-02-17T08:29:47;100093.41;;;6.28;100.00
22283;BME280;11310;51.528;21.204;2023-02-17T08:32:17;100105.31;;;6.37;100.00
22283;BME280;11310;51.528;21.204;2023-02-17T08:34:48;100099.13;;;6.41;100.00
22283;BME280;11310;51.528;21.204;2023-02-17T08:37:17;100099.88;;;6.44;100.00
22283;BME280;11310;51.528;21.204;2023-02-17T08:39:45;100104.16;;;6.47;100.00
22283;BME280;11310;51.528;21.204;2023-02-17T08:42:17;100106.69;;;6.50;100.00
22283;BME280;11310;51.528;21.204;2023-02-17T08:44:46;100101.41;;;6.53;100.00
22283;BME280;11310;51.528;21.204;2023-02-17T08:47:15;100100.41;;;6.57;100.00
22283;BME280;11310;51.528;21.204;2023-02-17T08:49:45;100102.00;;;6.61;100.00
22283;BME280;11310;51.528;21.204;2023-02-17T08:52:15;100102.09;;;6.59;100.00
22283;BME280;11310;51.528;21.204;2023-02-17T08:54:44;100102.09;;;6.59;100.00
22283;BME280;11310;51.528;21.204;2023-02-17T08:57:13;100103.78;;;6.60;100.00
22283;BME280;11310;51.528;21.204;2023-02-17T08:59:44;100096.75;;;6.62;100.00
22283;BME280;11310;51.528;21.204;2023-02-17T09:02:16;100101.84;;;6.67;100.00
22283;BME280;11310;51.528;21.204;2023-02-17T09:04:46;100090.44;;;6.71;100.00
22283;BME280;11310;51.528;21.204;2023-02-17T09:07:15;100083.41;;;6.73;100.00
22283;BME280;11310;51.528;21.204;2023-02-17T09:09:44;100090.34;;;6.74;100.00
22283;BME280;11310;51.528;21.204;2023-02-17T09:12:13;100081.63;;;6.75;100.00
22283;BME280;11310;51.528;21.204;2023-02-17T09:14:43;100084.97;;;6.80;100.00
22283;BME280;11310;51.528;21.204;2023-02-17T09:17:12;100081.38;;;6.84;100.00
22283;BME280;11310;51.528;21.204;2023-02-17T09:19:41;100078.66;;;6.87;100.00
22283;BME280;11310;51.528;21.204;2023-02-17T09:22:10;100072.44;;;6.91;100.00
22283;BME280;11310;51.528;21.204;2023-02-17T09:24:57;100068.03;;;6.93;100.00
22283;BME280;11310;51.528;21.204;2023-02-17T09:27:26;100071.28;;;6.99;100.00
22283;BME280;11310;51.528;21.204;2023-02-17T09:29:56;100083.38;;;7.02;100.00
22283;BME280;11310;51.528;21.204;2023-02-17T09:32:25;100073.78;;;7.04;100.00
22283;BME280;11310;51.528;21.204;2023-02-17T09:34:54;100085.91;;;7.05;100.00
22283;BME280;11310;51.528;21.204;2023-02-17T09:37:23;100079.06;;;7.01;100.00
22283;BME280;11310;51.528;21.204;2023-02-17T09:39:52;100084.28;;;7.01;100.00
22283;BME280;11310;51.528;21.204;2023-02-17T09:42:23;100076.44;;;7.02;100.00
22283;BME280;11310;51.528;21.204;2023-02-17T09:44:57;100072.06;;;7.03;100.00
22283;BME280;11310;51.528;21.204;2023-02-17T09:47:31;100074.66;;;7.04;100.00
22283;BME280;11310;51.528;21.204;2023-02-17T09:50:05;100078.94;;;7.05;100.00
22283;BME280;11310;51.528;21.204;2023-02-17T09:52:36;100066.75;;;7.06;100.00
22283;BME280;11310;51.528;21.204;2023-02-17T09:55:12;100070.25;;;7.05;100.00
22283;BME280;11310;51.528;21.204;2023-02-17T09:57:48;100061.69;;;7.01;100.00
22283;BME280;11310;51.528;21.204;2023-02-17T10:00:23;100053.13;;;6.98;100.00
22283;BME280;11310;51.528;21.204;2023-02-17T10:02:57;100048.78;;;6.97;100.00
22283;BME280;11310;51.528;21.204;2023-02-17T10:05:29;100036.59;;;6.97;100.00
22283;BME280;11310;51.528;21.204;2023-02-17T10:08:05;100034.69;;;7.02;100.00
22283;BME280;11310;51.528;21.204;2023-02-17T10:10:41;100028.53;;;7.05;100.00
22283;BME280;11310;51.528;21.204;2023-02-17T10:13:14;100027.59;;;7.07;100.00
22283;BME280;11310;51.528;21.204;2023-02-17T10:15:50;100019.72;;;7.09;100.00
22283;BME280;11310;51.528;21.204;2023-02-17T10:18:25;100024.03;;;7.10;100.00
22283;BME280;11310;51.528;21.204;2023-02-17T10:21:00;100011.94;;;7.07;100.00
22283;BME280;11310;51.528;21.204;2023-02-17T10:23:33;100011.03;;;7.08;100.00
22283;BME280;11310;51.528;21.204;2023-02-17T10:26:15;100016.19;;;7.10;100.00
22283;BME280;11310;51.528;21.204;2023-02-17T10:28:51;100002.19;;;7.12;100.00
22283;BME280;11310;51.528;21.204;2023-02-17T10:31:36;99999.41;;;7.18;100.00
22283;BME280;11310;51.528;21.204;2023-02-17T10:34:14;99996.53;;;7.26;100.00
22283;BME280;11310;51.528;21.204;2023-02-17T10:36:54;99994.50;;;7.34;100.00
22283;BME280;11310;51.528;21.204;2023-02-17T10:39:36;99995.94;;;7.44;100.00
22283;BME280;11310;51.528;21.204;2023-02-17T10:42:13;99988.84;;;7.47;100.00
22283;BME280;11310;51.528;21.204;2023-02-17T10:44:44;99988.66;;;7.52;100.00
22283;BME280;11310;51.528;21.204;2023-02-17T10:47:14;99980.69;;;7.56;100.00
22283;BME280;11310;51.528;21.204;2023-02-17T10:49:44;99983.13;;;7.61;100.00
22283;BME280;11310;51.528;21.204;2023-02-17T10:52:16;99983.22;;;7.59;100.00
22283;BME280;11310;51.528;21.204;2023-02-17T10:54:47;99979.84;;;7.56;100.00
22283;BME280;11310;51.528;21.204;2023-02-17T10:57:19;99975.53;;;7.55;100.00
22283;BME280;11310;51.528;21.204;2023-02-17T10:59:48;99979.16;;;7.51;100.00
22283;BME280;11310;51.528;21.204;2023-02-17T11:02:21;99984.41;;;7.49;100.00
22283;BME280;11310;51.528;21.204;2023-02-17T11:04:51;99970.47;;;7.50;100.00
22283;BME280;11310;51.528;21.204;2023-02-17T11:07:29;99972.69;;;7.61;100.00
22283;BME280;11310;51.528;21.204;2023-02-17T11:10:01;99953.31;;;7.68;100.00
22283;BME280;11310;51.528;21.204;2023-02-17T11:12:33;99940.94;;;7.73;100.00
22283;BME280;11310;51.528;21.204;2023-02-17T11:17:39;99943.38;;;7.77;100.00
22283;BME280;11310;51.528;21.204;2023-02-17T11:20:28;99940.84;;;7.76;100.00
22283;BME280;11310;51.528;21.204;2023-02-17T11:23:04;99940.94;;;7.73;100.00
22283;BME280;11310;51.528;21.204;2023-02-17T11:25:34;99932.31;;;7.71;100.00
22283;BME280;11310;51.528;21.204;2023-02-17T11:28:09;99921.88;;;7.71;100.00
22283;BME280;11310;51.528;21.204;2023-02-17T11:30:47;99924.41;;;7.72;100.00
22283;BME280;11310;51.528;21.204;2023-02-17T11:33:21;99915.63;;;7.75;100.00
22283;BME280;11310;51.528;21.204;2023-02-17T11:35:52;99907.59;;;7.81;100.00
22283;BME280;11310;51.528;21.204;2023-02-17T11:38:23;99895.78;;;7.94;100.00
22283;BME280;11310;51.528;21.204;2023-02-17T11:40:58;99889.16;;;8.07;100.00
22283;BME280;11310;51.528;21.204;2023-02-17T11:43:27;99885.00;;;8.26;100.00
22283;BME280;11310;51.528;21.204;2023-02-17T11:46:07;99877.47;;;8.40;100.00
22283;BME280;11310;51.528;21.204;2023-02-17T11:49:14;99868.06;;;8.56;100.00
22283;BME280;11310;51.528;21.204;2023-02-17T11:51:54;99856.16;;;8.70;100.00
22283;BME280;11310;51.528;21.204;2023-02-17T11:54:38;99866.84;;;8.86;100.00
22283;BME280;11310;51.528;21.204;2023-02-17T11:57:21;99851.38;;;8.80;100.00
22283;BME280;11310;51.528;21.204;2023-02-17T12:00:08;99851.63;;;8.74;100.00
22283;BME280;11310;51.528;21.204;2023-02-17T12:03:08;99837.25;;;8.64;100.00
22283;BME280;11310;51.528;21.204;2023-02-17T12:05:55;99835.94;;;8.54;100.00
22283;BME280;11310;51.528;21.204;2023-02-17T12:08:37;99816.59;;;8.36;100.00
22283;BME280;11310;51.528;21.204;2023-02-17T12:11:19;99832.38;;;8.35;100.00
22283;BME280;11310;51.528;21.204;2023-02-17T12:14:01;99816.06;;;8.28;100.00
22283;BME280;11310;51.528;21.204;2023-02-17T12:16:36;99807.38;;;8.28;100.00
22283;BME280;11310;51.528;21.204;2023-02-17T12:19:22;99808.28;;;8.27;100.00
22283;BME280;11310;51.528;21.204;2023-02-17T12:22:02;99799.63;;;8.25;100.00
22283;BME280;11310;51.528;21.204;2023-02-17T12:24:48;99797.94;;;8.24;100.00
22283;BME280;11310;51.528;21.204;2023-02-17T12:27:26;99793.66;;;8.23;100.00
22283;BME280;11310;51.528;21.204;2023-02-17T12:30:10;99790.28;;;8.19;100.00
22283;BME280;11310;51.528;21.204;2023-02-17T12:32:55;99773.84;;;8.16;100.00
22283;BME280;11310;51.528;21.204;2023-02-17T12:35:33;99775.69;;;8.14;100.00
22283;BME280;11310;51.528;21.204;2023-02-17T12:38:12;99778.19;;;8.17;100.00
22283;BME280;11310;51.528;21.204;2023-02-17T12:40:46;99774.53;;;8.21;100.00
22283;BME280;11310;51.528;21.204;2023-02-17T12:43:23;99773.66;;;8.22;100.00
22283;BME280;11310;51.528;21.204;2023-02-17T12:45:56;99765.88;;;8.20;100.00
22283;BME280;11310;51.528;21.204;2023-02-17T12:48:34;99759.91;;;8.17;100.00
22283;BME280;11310;51.528;21.204;2023-02-17T12:51:06;99749.56;;;8.14;100.00
22283;BME280;11310;51.528;21.204;2023-02-17T12:53:43;99737.41;;;8.13;100.00
22283;BME280;11310;51.528;21.204;2023-02-17T12:56:35;99730.34;;;8.15;100.00
22283;BME280;11310;51.528;21.204;2023-02-17T12:59:13;99725.13;;;8.15;100.00
22283;BME280;11310;51.528;21.204;2023-02-17T13:01:47;99728.41;;;8.20;100.00
22283;BME280;11310;51.528;21.204;2023-02-17T13:04:19;99723.09;;;8.23;100.00
22283;BME280;11310;51.528;21.204;2023-02-17T13:09:44;99713.31;;;8.28;100.00
22283;BME280;11310;51.528;21.204;2023-02-17T13:12:35;99710.56;;;8.31;100.00
22283;BME280;11310;51.528;21.204;2023-02-17T13:15:24;99704.47;;;8.30;100.00
22283;BME280;11310;51.528;21.204;2023-02-17T13:17:55;99694.03;;;8.30;100.00
22283;BME280;11310;51.528;21.204;2023-02-17T13:23:32;99691.47;;;8.29;100.00
22283;BME280;11310;51.528;21.204;2023-02-17T13:29:18;99677.47;;;8.30;100.00
22283;BME280;11310;51.528;21.204;2023-02-17T13:31:52;99680.19;;;8.28;100.00
22283;BME280;11310;51.528;21.204;2023-02-17T13:34:29;99681.94;;;8.28;100.00
22283;BME280;11310;51.528;21.204;2023-02-17T13:37:17;99684.63;;;8.26;100.00
22283;BME280;11310;51.528;21.204;2023-02-17T13:39:57;99683.09;;;8.21;100.00
22283;BME280;11310;51.528;21.204;2023-02-17T13:42:35;99679.81;;;8.16;100.00
22283;BME280;11310;51.528;21.204;2023-02-17T13:45:15;99672.16;;;8.11;100.00
22283;BME280;11310;51.528;21.204;2023-02-17T13:47:46;99674.84;;;8.10;100.00
22283;BME280;11310;51.528;21.204;2023-02-17T13:50:28;99664.50;;;8.07;100.00
22283;BME280;11310;51.528;21.204;2023-02-17T13:52:58;99668.03;;;8.06;100.00
22283;BME280;11310;51.528;21.204;2023-02-17T13:55:27;99664.66;;;8.04;100.00
22283;BME280;11310;51.528;21.204;2023-02-17T13:58:00;99650.72;;;8.03;100.00
22283;BME280;11310;51.528;21.204;2023-02-17T14:00:30;99656.00;;;8.02;100.00
22283;BME280;11310;51.528;21.204;2023-02-17T14:03:10;99653.56;;;7.99;100.00
22283;BME280;11310;51.528;21.204;2023-02-17T14:05:42;99649.31;;;7.96;100.00